createdAt,value
2023-03-04T00:02:11.281Z,71.25
2023-03-04T00:04:37.933Z,73.50
2023-03-04T00:07:04.585Z,68.75
2023-03-04T00:09:31.136Z,71.50
2023-03-04T00:11:57.744Z,71.25
2023-03-04T00:14:24.396Z,71.50
2023-03-04T00:16:50.973Z,74.75
2023-03-04T00:19:17.611Z,73.25
2023-03-04T00:21:44.236Z,68.25
2023-03-04T00:24:10.807Z,66.00
2023-03-04T00:26:37.366Z,70.00
2023-03-04T00:29:03.999Z,67.00
2023-03-04T00:31:30.667Z,70.50
2023-03-04T00:33:57.220Z,69.25
2023-03-04T00:36:23.776Z,68.00
2023-03-04T00:38:50.344Z,73.75
2023-03-04T00:41:16.909Z,74.00
2023-03-04T00:43:43.536Z,74.75
2023-03-04T00:46:10.221Z,68.50
2023-03-04T00:48:38.642Z,71.75
2023-03-04T00:51:05.919Z,70.50
2023-03-04T00:53:32.478Z,66.75
2023-03-04T00:55:59.041Z,69.75
2023-03-04T00:58:25.688Z,68.50
2023-03-04T01:00:52.428Z,62.75
2023-03-04T01:03:19.185Z,70.75
2023-03-04T01:05:45.934Z,74.25
2023-03-04T01:08:12.571Z,70.00
2023-03-04T01:10:39.189Z,68.75
2023-03-04T01:13:05.943Z,73.75
2023-03-04T01:15:32.531Z,66.00
2023-03-04T01:17:59.331Z,68.25
2023-03-04T01:20:25.997Z,71.50
2023-03-04T01:22:52.601Z,66.25
2023-03-04T01:25:19.261Z,71.25
2023-03-04T01:27:45.904Z,71.75
2023-03-04T01:30:13.032Z,68.75
2023-03-04T01:32:39.636Z,69.75
2023-03-04T01:35:06.549Z,72.00
2023-03-04T01:37:33.162Z,73.00
2023-03-04T01:39:59.722Z,72.25
2023-03-04T01:42:30.348Z,71.75
2023-03-04T01:44:56.948Z,74.50
2023-03-04T01:47:25.614Z,70.50
2023-03-04T01:49:55.929Z,75.50
2023-03-04T01:52:22.893Z,69.25
2023-03-04T01:54:49.582Z,65.50
2023-03-04T01:57:24.742Z,70.00
2023-03-04T02:00:31.108Z,71.50
2023-03-04T02:03:08.000Z,70.00
2023-03-04T02:05:37.062Z,71.25
2023-03-04T02:08:04.578Z,68.50
2023-03-04T02:10:31.631Z,69.75
2023-03-04T02:12:59.906Z,68.50
2023-03-04T02:15:26.588Z,71.00
2023-03-04T02:17:53.172Z,71.00
2023-03-04T02:20:35.596Z,70.00
2023-03-04T02:23:24.250Z,68.75
2023-03-04T02:26:13.723Z,65.75
2023-03-04T02:28:41.386Z,67.75
2023-03-04T02:31:20.630Z,66.50
2023-03-04T02:33:47.339Z,68.50
2023-03-04T02:36:13.938Z,71.00
2023-03-04T02:38:40.628Z,68.25
2023-03-04T02:41:13.876Z,71.75
2023-03-04T02:43:40.911Z,71.00
2023-03-04T02:46:10.734Z,65.75
2023-03-04T02:48:37.334Z,70.00
2023-03-04T02:51:04.193Z,68.50
2023-03-04T02:53:30.842Z,69.25
2023-03-04T02:55:57.446Z,72.25
2023-03-04T02:58:23.992Z,68.00
2023-03-04T03:00:50.549Z,67.75
2023-03-04T03:03:17.203Z,69.75
2023-03-04T03:05:44.024Z,72.25
2023-03-04T03:08:10.658Z,67.75
2023-03-04T03:10:37.268Z,68.75
2023-03-04T03:13:03.998Z,68.75
2023-03-04T03:15:30.599Z,69.00
2023-03-04T03:17:57.659Z,64.25
2023-03-04T03:20:24.297Z,67.25
2023-03-04T03:22:50.856Z,68.00
2023-03-04T03:25:18.057Z,67.00
2023-03-04T03:27:44.831Z,70.75
2023-03-04T03:30:14.173Z,68.00
2023-03-04T03:32:40.749Z,71.00
2023-03-04T03:35:07.691Z,63.75
2023-03-04T03:37:34.347Z,65.25
2023-03-04T03:40:01.011Z,73.25
2023-03-04T03:42:27.690Z,72.25
2023-03-04T03:44:54.267Z,70.00
2023-03-04T03:47:21.050Z,66.50
2023-03-04T03:49:47.758Z,72.00
2023-03-04T03:52:14.482Z,66.25
2023-03-04T03:54:41.149Z,69.25
2023-03-04T03:57:07.744Z,63.75
2023-03-04T03:59:34.318Z,69.50
2023-03-04T04:02:01.075Z,77.00
2023-03-04T04:04:27.683Z,68.50
2023-03-04T04:06:54.288Z,70.00
2023-03-04T04:09:20.976Z,68.50
2023-03-04T04:11:47.600Z,65.75
2023-03-04T04:14:15.010Z,68.75
2023-03-04T04:16:41.652Z,66.00
2023-03-04T04:19:08.430Z,68.00
2023-03-04T04:21:35.020Z,66.00
2023-03-04T04:24:01.555Z,65.50
2023-03-04T04:26:28.166Z,72.00
2023-03-04T04:28:54.784Z,64.00
2023-03-04T04:31:21.332Z,69.50
2023-03-04T04:33:47.967Z,65.75
2023-03-04T04:36:16.441Z,65.50
2023-03-04T04:38:43.215Z,68.00
2023-03-04T04:41:21.412Z,70.25
2023-03-04T04:43:48.376Z,67.00
2023-03-04T04:46:16.236Z,70.50
2023-03-04T04:48:43.151Z,66.00
2023-03-04T04:51:09.721Z,71.75
2023-03-04T04:53:36.467Z,64.00
2023-03-04T04:56:14.183Z,65.25
2023-03-04T04:58:41.195Z,71.75
2023-03-04T05:01:08.384Z,67.00
2023-03-04T05:03:36.744Z,68.25
2023-03-04T05:06:05.424Z,65.25
2023-03-04T05:08:32.351Z,66.75
2023-03-04T05:10:59.284Z,70.50
2023-03-04T05:13:26.043Z,67.50
2023-03-04T05:15:54.822Z,68.50
2023-03-04T05:18:23.463Z,68.75
2023-03-04T05:21:00.953Z,62.50
2023-03-04T05:23:30.379Z,68.25
2023-03-04T05:25:56.985Z,65.25
2023-03-04T05:28:24.191Z,64.00
2023-03-04T05:30:50.913Z,62.75
2023-03-04T05:33:18.654Z,66.75
2023-03-04T05:35:46.443Z,60.75
2023-03-04T05:38:15.698Z,65.25
2023-03-04T05:40:43.427Z,65.75
2023-03-04T05:43:10.390Z,69.00
2023-03-04T05:45:37.280Z,67.25
2023-03-04T05:48:04.568Z,70.25
2023-03-04T05:50:31.696Z,60.75
2023-03-04T05:52:58.315Z,54.00
2023-03-04T05:55:25.337Z,60.75
2023-03-04T05:57:51.891Z,66.75
2023-03-04T06:00:18.706Z,63.75
2023-03-04T06:02:45.360Z,64.50
2023-03-04T06:05:14.077Z,62.25
2023-03-04T06:07:43.202Z,63.25
2023-03-04T06:10:11.623Z,55.75
2023-03-04T06:12:38.377Z,61.50
2023-03-04T06:15:06.181Z,63.50
2023-03-04T06:17:33.079Z,66.50
2023-03-04T06:19:59.651Z,61.00
2023-03-04T06:22:26.272Z,61.25
2023-03-04T06:24:52.949Z,62.75
2023-03-04T06:27:19.548Z,60.00
2023-03-04T06:29:46.187Z,64.50
2023-03-04T06:32:12.751Z,66.75
2023-03-04T06:34:39.378Z,64.00
2023-03-04T06:37:06.093Z,64.50
2023-03-04T06:39:32.954Z,61.00
2023-03-04T06:41:59.770Z,59.75
2023-03-04T06:44:26.510Z,57.25
2023-03-04T06:46:53.115Z,54.50
2023-03-04T06:49:19.777Z,60.00
2023-03-04T06:51:46.381Z,66.25
2023-03-04T06:54:12.971Z,58.75
2023-03-04T06:56:39.550Z,61.75
2023-03-04T06:59:06.168Z,61.25
2023-03-04T07:01:33.034Z,60.75
2023-03-04T07:03:59.856Z,63.50
2023-03-04T07:06:28.752Z,62.00
2023-03-04T07:08:56.258Z,59.50
2023-03-04T07:11:23.867Z,57.00
2023-03-04T07:13:51.228Z,54.00
2023-03-04T07:16:21.771Z,59.25
2023-03-04T07:18:48.520Z,58.75
2023-03-04T07:21:16.439Z,59.75
2023-03-04T07:23:43.265Z,57.00
2023-03-04T07:26:10.029Z,61.50
2023-03-04T07:28:37.423Z,62.50
2023-03-04T07:31:29.949Z,62.00
2023-03-04T07:34:02.405Z,60.50
2023-03-04T07:36:29.517Z,63.50
2023-03-04T07:38:56.703Z,60.25
2023-03-04T07:41:26.883Z,62.50
2023-03-04T07:43:53.503Z,60.00
2023-03-04T07:46:20.213Z,64.50
2023-03-04T07:48:46.852Z,61.25
2023-03-04T07:51:16.978Z,64.25
2023-03-04T07:53:46.243Z,64.25
2023-03-04T07:56:16.534Z,64.25
2023-03-04T07:58:43.374Z,66.75
2023-03-04T08:01:12.406Z,66.75
2023-03-04T08:03:39.178Z,59.75
2023-03-04T08:06:08.158Z,66.00
2023-03-04T08:08:35.357Z,66.50
2023-03-04T08:11:05.846Z,66.75
2023-03-04T08:13:32.496Z,60.00
2023-03-04T08:15:59.360Z,66.75
2023-03-04T08:18:26.728Z,68.25
2023-03-04T08:20:53.373Z,65.75
2023-03-04T08:23:20.483Z,64.25
2023-03-04T08:25:47.735Z,63.75
2023-03-04T08:28:14.787Z,64.50
2023-03-04T08:30:42.072Z,67.25
2023-03-04T08:33:10.206Z,67.75
2023-03-04T08:35:39.061Z,66.50
2023-03-04T08:38:06.548Z,66.25
2023-03-04T08:40:33.790Z,66.25
2023-03-04T08:43:00.803Z,62.50
2023-03-04T08:45:27.646Z,63.75
2023-03-04T08:47:54.257Z,65.50
2023-03-04T08:50:22.565Z,65.25
2023-03-04T08:52:49.421Z,68.00
2023-03-04T08:55:16.290Z,62.50
2023-03-04T08:57:42.957Z,64.00
2023-03-04T09:00:10.208Z,65.00
2023-03-04T09:02:36.799Z,58.50
2023-03-04T09:05:03.491Z,63.00
2023-03-04T09:07:30.131Z,65.50
2023-03-04T09:09:56.689Z,67.25
2023-03-04T09:12:23.268Z,65.00
2023-03-04T09:15:04.494Z,65.25
2023-03-04T09:17:36.369Z,65.25
2023-03-04T09:20:04.646Z,62.25
2023-03-04T09:22:31.366Z,63.75
2023-03-04T09:24:57.917Z,59.00
2023-03-04T09:27:24.568Z,56.25
2023-03-04T09:29:51.173Z,66.50
2023-03-04T09:32:17.933Z,54.50
2023-03-04T09:34:44.779Z,66.25
2023-03-04T09:37:11.627Z,67.25
2023-03-04T09:39:38.312Z,67.00
2023-03-04T09:42:07.676Z,67.50
2023-03-04T09:44:41.058Z,69.50
2023-03-04T09:47:16.584Z,63.50
2023-03-04T09:49:48.498Z,64.25
2023-03-04T09:52:21.125Z,63.75
2023-03-04T09:55:06.126Z,66.00
2023-03-04T09:57:41.700Z,66.00
2023-03-04T10:00:20.545Z,57.75
2023-03-04T10:03:10.942Z,68.25
2023-03-04T10:05:41.452Z,61.75
2023-03-04T10:08:37.198Z,62.00
2023-03-04T10:11:11.392Z,65.25
2023-03-04T10:13:48.705Z,66.50
2023-03-04T10:16:21.002Z,64.50
2023-03-04T10:18:54.620Z,62.00
2023-03-04T10:21:51.033Z,64.25
2023-03-04T10:24:22.527Z,65.00
2023-03-04T10:26:53.808Z,59.75
2023-03-04T10:29:22.941Z,62.75
2023-03-04T10:31:49.796Z,61.50
2023-03-04T10:34:18.008Z,60.75
2023-03-04T10:36:54.791Z,63.25
2023-03-04T10:39:26.116Z,62.75
2023-03-04T10:42:02.903Z,64.25
2023-03-04T10:44:30.889Z,62.75
2023-03-04T10:46:58.474Z,60.25
2023-03-04T10:49:26.347Z,67.25
2023-03-04T10:52:15.645Z,62.75
2023-03-04T10:54:48.912Z,61.00
2023-03-04T10:57:16.983Z,65.25
2023-03-04T10:59:50.612Z,62.75
2023-03-04T11:02:24.943Z,64.00
2023-03-04T11:05:13.228Z,63.25
2023-03-04T11:07:55.023Z,62.50
2023-03-04T11:10:40.850Z,63.25
2023-03-04T11:13:21.133Z,61.00
2023-03-04T11:15:59.286Z,63.75
2023-03-04T11:18:47.232Z,56.50
2023-03-04T11:21:20.485Z,63.25
2023-03-04T11:24:27.746Z,64.25
2023-03-04T11:27:05.659Z,61.25
2023-03-04T11:29:46.189Z,61.25
2023-03-04T11:32:24.194Z,62.25
2023-03-04T11:34:58.663Z,58.00
2023-03-04T11:37:40.823Z,67.50
2023-03-04T11:40:34.759Z,61.75
2023-03-04T11:43:19.772Z,66.75
2023-03-04T11:46:18.871Z,63.00
2023-03-04T11:48:56.912Z,64.25
2023-03-04T11:51:36.984Z,58.75
2023-03-04T11:54:35.889Z,59.75
2023-03-04T11:57:39.646Z,60.00
2023-03-04T12:00:30.493Z,62.50
2023-03-04T12:03:13.151Z,62.75
2023-03-04T12:05:58.464Z,61.00
2023-03-04T12:08:51.198Z,64.00
2023-03-04T12:11:33.402Z,61.25
2023-03-04T12:14:15.068Z,62.00
2023-03-04T12:17:22.383Z,56.50
2023-03-04T12:20:22.953Z,66.00
2023-03-04T12:23:09.377Z,66.25
2023-03-04T12:25:50.398Z,60.25
2023-03-04T12:28:54.665Z,60.50
2023-03-04T12:31:39.658Z,57.25
2023-03-04T12:34:18.342Z,57.50
2023-03-04T12:37:09.109Z,61.75
2023-03-04T12:39:47.813Z,58.25
2023-03-04T12:42:45.297Z,62.00
2023-03-04T12:45:27.402Z,62.25
2023-03-04T12:48:17.702Z,68.25
2023-03-04T12:51:14.403Z,62.75
2023-03-04T12:53:51.309Z,62.50
2023-03-04T12:56:27.903Z,62.50
2023-03-04T12:58:55.529Z,58.25
2023-03-04T13:01:46.348Z,60.25
2023-03-04T13:04:23.557Z,61.50
2023-03-04T13:07:08.477Z,62.50
2023-03-04T13:09:53.039Z,60.50
2023-03-04T13:12:22.530Z,64.50
2023-03-04T13:15:07.616Z,61.00
2023-03-04T13:17:43.459Z,64.00
2023-03-04T13:20:25.220Z,60.25
2023-03-04T13:22:55.909Z,58.00
2023-03-04T13:25:35.214Z,57.50
2023-03-04T13:28:10.992Z,60.75
2023-03-04T13:30:40.395Z,61.75
2023-03-04T13:33:13.736Z,63.75
2023-03-04T13:35:49.714Z,62.75
2023-03-04T13:38:28.670Z,61.50
2023-03-04T13:41:20.902Z,59.00
2023-03-04T13:43:48.541Z,59.50
2023-03-04T13:46:18.283Z,62.00
2023-03-04T13:48:50.906Z,61.50
2023-03-04T13:51:30.326Z,67.00
2023-03-04T13:53:59.962Z,64.00
2023-03-04T13:56:31.990Z,64.25
2023-03-04T13:59:30.351Z,67.00
2023-03-04T14:02:12.022Z,58.50
2023-03-04T14:04:40.931Z,56.00
2023-03-04T14:07:28.781Z,62.50
2023-03-04T14:10:02.457Z,58.75
2023-03-04T14:12:32.401Z,59.50
2023-03-04T14:15:14.311Z,62.00
2023-03-04T14:17:45.741Z,60.75
2023-03-04T14:20:25.965Z,57.75
2023-03-04T14:22:52.739Z,54.25
2023-03-04T14:25:19.249Z,57.25
2023-03-04T14:27:46.989Z,60.50
2023-03-04T14:30:41.708Z,56.75
2023-03-04T14:33:15.890Z,57.50
2023-03-04T14:35:48.437Z,53.50
2023-03-04T14:38:29.886Z,56.00
2023-03-04T14:41:02.568Z,52.25
2023-03-04T14:43:31.133Z,58.25
2023-03-04T14:46:02.457Z,55.00
2023-03-04T14:48:32.156Z,54.25
2023-03-04T14:51:00.624Z,54.50
2023-03-04T14:53:29.628Z,60.50
2023-03-04T14:56:04.459Z,59.50
2023-03-04T14:58:39.108Z,55.00
2023-03-04T15:01:16.449Z,61.75
2023-03-04T15:04:03.222Z,59.50
2023-03-04T15:06:33.424Z,59.25
2023-03-04T15:09:06.180Z,58.50
2023-03-04T15:12:03.929Z,58.00
2023-03-04T15:14:50.629Z,60.00
2023-03-04T15:17:37.512Z,58.00
2023-03-04T15:20:06.807Z,54.00
2023-03-04T15:22:35.032Z,57.50
2023-03-04T15:25:02.471Z,62.75
2023-03-04T15:27:30.438Z,59.00
2023-03-04T15:30:00.685Z,62.25
2023-03-04T15:32:29.064Z,59.00
2023-03-04T15:34:56.537Z,56.50
2023-03-04T15:37:28.506Z,60.75
2023-03-04T15:39:57.598Z,56.00
2023-03-04T15:42:24.796Z,59.50
2023-03-04T15:44:51.338Z,61.25
2023-03-04T15:47:18.076Z,56.00
2023-03-04T15:49:47.575Z,57.75
2023-03-04T15:52:22.159Z,56.00
2023-03-04T15:54:49.592Z,58.50
2023-03-04T15:57:26.723Z,58.50
2023-03-04T15:59:53.693Z,60.25
2023-03-04T16:02:23.099Z,56.00
2023-03-04T16:04:50.546Z,59.25
2023-03-04T16:07:19.624Z,56.75
2023-03-04T16:09:48.604Z,55.50
2023-03-04T16:12:15.259Z,60.25
2023-03-04T16:14:42.515Z,59.75
2023-03-04T16:17:09.801Z,66.25
2023-03-04T16:19:36.398Z,55.75
2023-03-04T16:22:03.058Z,54.50
2023-03-04T16:24:34.039Z,53.50
2023-03-04T16:27:00.839Z,61.75
2023-03-04T16:29:29.602Z,62.50
2023-03-04T16:31:56.168Z,56.00
2023-03-04T16:34:22.787Z,54.25
2023-03-04T16:36:49.449Z,57.75
2023-03-04T16:39:22.078Z,57.25
2023-03-04T16:41:48.948Z,59.25
2023-03-04T16:44:15.831Z,59.25
2023-03-04T16:46:42.431Z,57.75
2023-03-04T16:49:09.179Z,59.00
2023-03-04T16:51:43.574Z,58.75
2023-03-04T16:54:17.021Z,59.75
2023-03-04T16:56:43.636Z,61.50
2023-03-04T16:59:17.091Z,61.75
2023-03-04T17:01:44.610Z,61.75
2023-03-04T17:04:11.344Z,62.00
2023-03-04T17:06:38.583Z,60.00
2023-03-04T17:09:06.536Z,65.75
2023-03-04T17:11:33.637Z,56.50
2023-03-04T17:14:00.483Z,57.25
2023-03-04T17:16:27.172Z,61.50
2023-03-04T17:18:54.074Z,57.75
2023-03-04T17:21:25.821Z,63.00
2023-03-04T17:23:54.218Z,59.75
2023-03-04T17:26:23.700Z,61.00
2023-03-04T17:28:50.723Z,57.75
2023-03-04T17:31:20.304Z,55.25
2023-03-04T17:33:47.760Z,60.25
2023-03-04T17:36:16.253Z,60.50
2023-03-04T17:38:43.229Z,64.75
2023-03-04T17:41:15.902Z,61.75
2023-03-04T17:43:44.463Z,62.75
2023-03-04T17:46:13.426Z,61.50
2023-03-04T17:48:40.654Z,65.75
2023-03-04T17:51:07.373Z,67.50
2023-03-04T17:53:33.987Z,61.50
2023-03-04T17:56:03.047Z,65.25
2023-03-04T17:58:31.185Z,64.50
2023-03-04T18:01:02.385Z,65.75
2023-03-04T18:03:29.175Z,62.50
2023-03-04T18:05:55.778Z,67.50
2023-03-04T18:08:24.098Z,66.25
2023-03-04T18:10:50.924Z,69.25
2023-03-04T18:13:17.539Z,67.25
2023-03-04T18:15:44.232Z,66.75
2023-03-04T18:18:10.814Z,69.00
2023-03-04T18:20:37.796Z,66.00
2023-03-04T18:23:04.412Z,70.50
2023-03-04T18:25:31.013Z,70.75
2023-03-04T18:27:57.679Z,70.50
2023-03-04T18:30:27.630Z,75.50
2023-03-04T18:32:56.841Z,74.00
2023-03-04T18:35:23.597Z,71.75
2023-03-04T18:37:50.299Z,74.50
2023-03-04T18:40:17.139Z,78.50
2023-03-04T18:42:44.342Z,74.75
2023-03-04T18:45:15.185Z,73.25
2023-03-04T18:47:46.891Z,76.50
2023-03-04T18:50:14.573Z,76.75
2023-03-04T18:52:41.662Z,74.75
2023-03-04T18:55:09.218Z,76.75
2023-03-04T18:57:39.073Z,78.50
2023-03-04T19:00:06.804Z,77.75
2023-03-04T19:02:57.937Z,75.50
2023-03-04T19:05:27.719Z,76.00
2023-03-04T19:07:54.771Z,76.50
2023-03-04T19:10:21.929Z,81.25
2023-03-04T19:12:48.592Z,39.75
2023-03-04T19:15:15.839Z,78.25
2023-03-04T19:17:45.405Z,80.00
2023-03-04T19:20:13.423Z,79.75
2023-03-04T19:22:40.049Z,82.00
2023-03-04T19:25:07.190Z,85.75
2023-03-04T19:27:33.848Z,94.50
2023-03-04T19:30:00.554Z,86.75
2023-03-04T19:32:27.515Z,86.00
2023-03-04T19:34:54.119Z,74.00
2023-03-04T19:37:20.676Z,81.75
2023-03-04T19:39:49.179Z,77.50
2023-03-04T19:42:16.467Z,78.75
2023-03-04T19:44:44.890Z,82.25
2023-03-04T19:47:11.821Z,76.00
2023-03-04T19:49:38.442Z,79.50
2023-03-04T19:52:05.395Z,80.00
2023-03-04T19:54:32.184Z,77.75
2023-03-04T19:56:59.060Z,74.00
2023-03-04T19:59:25.716Z,81.00
2023-03-04T20:01:52.380Z,74.25
2023-03-04T20:04:21.026Z,76.50
2023-03-04T20:06:49.915Z,78.25
2023-03-04T20:09:18.167Z,79.50
2023-03-04T20:11:57.272Z,79.25
2023-03-04T20:14:26.112Z,78.50
2023-03-04T20:16:52.720Z,77.25
2023-03-04T20:19:19.311Z,80.50
2023-03-04T20:21:45.900Z,77.75
2023-03-04T20:24:13.042Z,76.25
2023-03-04T20:26:39.679Z,78.00
2023-03-04T20:29:06.473Z,77.50
2023-03-04T20:31:38.247Z,80.75
2023-03-04T20:34:08.522Z,81.00
2023-03-04T20:36:36.152Z,78.25
2023-03-04T20:39:06.733Z,78.00
2023-03-04T20:41:39.496Z,77.50
2023-03-04T20:44:08.608Z,81.25
2023-03-04T20:46:45.335Z,75.50
2023-03-04T20:49:23.254Z,78.25
2023-03-04T20:51:51.126Z,78.50
2023-03-04T20:54:17.704Z,77.00
2023-03-04T20:56:44.527Z,78.25
2023-03-04T20:59:12.251Z,78.25
2023-03-04T21:01:41.611Z,74.00
2023-03-04T21:04:08.387Z,78.00
2023-03-04T21:06:36.280Z,74.75
2023-03-04T21:09:05.980Z,76.75
2023-03-04T21:11:39.922Z,77.25
2023-03-04T21:14:15.729Z,75.25
2023-03-04T21:16:43.202Z,69.00
2023-03-04T21:19:15.383Z,72.75
2023-03-04T21:21:42.080Z,73.75
2023-03-04T21:24:15.207Z,76.50
2023-03-04T21:26:45.324Z,72.75
2023-03-04T21:29:16.782Z,75.75
2023-03-04T21:31:52.876Z,71.00
2023-03-04T21:34:40.134Z,78.25
2023-03-04T21:37:07.256Z,69.50
2023-03-04T21:39:34.140Z,74.00
2023-03-04T21:42:00.769Z,72.75
2023-03-04T21:44:44.997Z,70.25
2023-03-04T21:47:14.947Z,73.25
2023-03-04T21:49:41.557Z,76.50
2023-03-04T21:52:08.207Z,72.75
2023-03-04T21:54:34.778Z,69.25
2023-03-04T21:57:01.332Z,74.00
2023-03-04T21:59:28.019Z,73.25
2023-03-04T22:01:55.259Z,68.50
2023-03-04T22:04:22.011Z,74.25
2023-03-04T22:06:48.620Z,71.25
2023-03-04T22:09:15.818Z,70.75
2023-03-04T22:11:42.578Z,71.50
2023-03-04T22:14:10.702Z,68.00
2023-03-04T22:16:48.954Z,76.25
2023-03-04T22:19:19.548Z,72.75
2023-03-04T22:21:46.199Z,71.25
2023-03-04T22:24:12.844Z,71.00
2023-03-04T22:26:39.477Z,69.50
2023-03-04T22:29:06.169Z,72.75
2023-03-04T22:31:35.306Z,70.50
2023-03-04T22:34:10.466Z,66.25
2023-03-04T22:36:43.223Z,72.00
2023-03-04T22:39:13.059Z,71.75
2023-03-04T22:41:39.626Z,71.75
2023-03-04T22:44:06.488Z,68.50
2023-03-04T22:46:36.069Z,68.75
2023-03-04T22:49:04.902Z,68.50
2023-03-04T22:51:32.492Z,71.25
2023-03-04T22:53:59.078Z,69.75
2023-03-04T22:56:25.622Z,69.25
2023-03-04T22:58:52.428Z,73.00
2023-03-04T23:01:20.769Z,68.00
2023-03-04T23:03:48.938Z,68.00
2023-03-04T23:06:19.245Z,68.75
2023-03-04T23:08:48.633Z,70.00
2023-03-04T23:11:17.939Z,70.75
2023-03-04T23:13:45.147Z,73.50
2023-03-04T23:16:12.922Z,70.00
2023-03-04T23:18:41.338Z,68.25
2023-03-04T23:21:15.524Z,73.00
2023-03-04T23:23:42.582Z,74.00
2023-03-04T23:26:22.619Z,67.50
2023-03-04T23:28:49.953Z,67.00
2023-03-04T23:31:17.595Z,75.25
2023-03-04T23:33:45.777Z,67.50
2023-03-04T23:36:14.981Z,71.00
2023-03-04T23:38:43.705Z,64.25
2023-03-04T23:41:18.873Z,67.00
2023-03-04T23:43:45.996Z,70.75
2023-03-04T23:46:12.845Z,66.25
2023-03-04T23:48:41.121Z,67.50
2023-03-04T23:51:09.209Z,71.25
2023-03-04T23:53:38.910Z,75.00
2023-03-04T23:56:16.686Z,73.00
2023-03-04T23:58:44.264Z,67.00
